Hovedside
METAR-TAF:

METAR-TAF

Lufthavner :

London Heathrow lufthavn

London-Heathrow, England

breddegrad: 51-29N, lengdegrad: 000-27W, høyde over havet: 24 m

Gjeldene værobservasjon

Denne rapporten ble laget for 26 minutter siden, klokken 07:50 UTC
Vind 4 kt fra Vest-nordvest, skiftende mellom Vest-sørvest og Nord
Temperatur 16°C
Luftfuktighet 51%
Trykk 1030 hPa
Sikt 10 km eller mer

METAR: EGLL 230750Z AUTO 30004KT 240V350 9999 NCD 16/06 Q1030 NOSIG

Tid: 09:16 (08:16 UTC)

Varsel

Denne rapporten ble laget for 3 timer og 23 minutter siden, klokken 04:53 UTC
Varsel gyldig fra 23. klokken 06 UTC til 24. klokken 12 UTC
Vind 3 kt fra skiftende retning
Sikt 10 km eller mer
ingen skyer under 1500 m og ingen bygeskyer
Blir
fra 23. klokken 06 UTC til 23. klokken 09 UTC
Vind 10 kt fra Vest-nordvest

TAF: EGLL 230453Z 2306/2412 VRB03KT CAVOK BECMG 2306/2309 29010KT

Værobservasjoner og værvarsel for over 4000 flyplasser (METAR- og TAF-rapporter).

Tilgjengelige stasjoner er representert av de røde og gule prikkene på kartet.

Hold musepekeren over prikken for å se navnet på stasjonen.

Klikk så for å se værobservasjoner og -varsler.

For å forandre kartet kan du klikke på den grønne knappen med svart kryss for å zoome inn, på den grønne knappen med strek for å zoome ut, eller på de grønne pilene for å se tilstøtende kart.


METAR-TAF: